Time;durP1;ratioP1;P1;durP2;ratioP2;P2;SDS_P1;SDS_P2;PMS_P1;PMS_P2;Temp;Humidity;BMP_temperature;BMP_pressure;BME280_temperature;BME280_humidity;BME280_pressure;Samples;Min_cycle;Max_cycle;Signal;HPM_P1;HPM_P2
2021/08/24 00:01:45;;;;;;;13.60;12.15;;;;;;;17.92;69.21;97507.81;1724429;82;21036;-84
2021/08/24 00:04:12;;;;;;;12.30;10.98;;;;;;;17.90;69.70;97526.30;1725574;82;21008;-84
2021/08/24 00:06:38;;;;;;;12.25;10.90;;;;;;;17.84;70.77;97534.73;1724786;83;21462;-84
2021/08/24 00:09:05;;;;;;;11.22;9.93;;;;;;;17.84;71.03;97521.33;1724580;83;20981;-84
2021/08/24 00:11:33;;;;;;;15.65;11.15;;;;;;;17.94;70.64;97534.02;1724180;83;21055;-84
2021/08/24 00:14:06;;;;;;;12.73;10.35;;;;;;;18.12;70.19;97528.42;1724770;82;21427;-84
2021/08/24 00:16:34;;;;;;;14.23;9.73;;;;;;;18.25;69.56;97530.25;1725807;82;21019;-84
2021/08/24 00:19:00;;;;;;;13.18;10.70;;;;;;;18.33;68.86;97527.43;1727855;82;20988;-84
2021/08/24 00:21:27;;;;;;;12.68;10.53;;;;;;;18.41;69.25;97517.98;1725545;83;21043;-84
2021/08/24 00:23:53;;;;;;;12.43;10.85;;;;;;;18.49;68.50;97514.77;1725071;83;21426;-84
2021/08/24 00:26:20;;;;;;;15.20;11.65;;;;;;;18.50;69.04;97512.45;1725544;82;21032;-84
2021/08/24 00:28:46;;;;;;;12.90;11.50;;;;;;;18.50;68.16;97519.16;1726004;83;21051;-85
2021/08/24 00:31:13;;;;;;;13.03;11.55;;;;;;;18.42;68.46;97523.72;1725988;82;21044;-84
2021/08/24 00:33:39;;;;;;;13.48;11.43;;;;;;;18.37;68.54;97528.08;1725243;83;21035;-84
2021/08/24 00:36:06;;;;;;;12.58;11.33;;;;;;;18.36;68.55;97538.91;1724676;83;21076;-84
2021/08/24 00:38:32;;;;;;;13.80;12.05;;;;;;;18.32;70.45;97540.95;1725430;82;20992;-84
2021/08/24 00:41:03;;;;;;;14.00;11.60;;;;;;;18.22;69.87;97535.34;1716077;83;21028;-84
2021/08/24 00:43:32;;;;;;;14.85;11.60;;;;;;;18.18;68.98;97532.48;1720174;83;21041;-84
2021/08/24 00:46:13;;;;;;;13.18;11.25;;;;;;;18.17;69.83;97537.47;1715315;83;21031;-84
2021/08/24 00:48:42;;;;;;;12.55;11.25;;;;;;;18.16;69.03;97530.41;1720557;83;21032;-84
2021/08/24 00:51:12;;;;;;;12.82;11.55;;;;;;;18.14;68.92;97539.05;1748037;82;21041;-84
2021/08/24 00:53:39;;;;;;;12.98;11.18;;;;;;;18.09;69.36;97541.19;1736566;82;21012;-85
2021/08/24 00:56:08;;;;;;;12.30;11.00;;;;;;;18.06;69.25;97545.73;1720735;83;21025;-84
2021/08/24 00:58:35;;;;;;;12.23;10.90;;;;;;;18.06;69.05;97552.95;1720888;83;21036;-84
2021/08/24 01:01:02;;;;;;;14.28;10.40;;;;;;;17.99;69.51;97561.00;1721485;82;21016;-84
2021/08/24 01:03:36;;;;;;;12.10;10.90;;;;;;;17.96;69.36;97556.71;1739923;82;21524;-84
2021/08/24 01:06:34;;;;;;;12.90;11.35;;;;;;;17.94;69.35;97556.80;1720786;83;21064;-84
2021/08/24 01:09:18;;;;;;;12.23;10.93;;;;;;;17.90;70.03;97539.70;1717285;82;21070;-84
2021/08/24 01:12:26;;;;;;;15.32;11.03;;;;;;;17.89;69.75;97547.37;1710460;82;21011;-84
2021/08/24 01:15:16;;;;;;;13.93;11.38;;;;;;;17.88;71.05;97541.14;1695501;84;20959;-84
2021/08/24 01:18:09;;;;;;;12.50;11.20;;;;;;;17.84;71.09;97534.27;1718094;83;21008;-84
2021/08/24 01:21:16;;;;;;;14.65;11.50;;;;;;;17.81;70.79;97550.07;1718671;83;21016;-84
2021/08/24 01:24:07;;;;;;;14.60;11.38;;;;;;;17.78;71.68;97544.06;1717125;82;21028;-85
2021/08/24 01:27:03;;;;;;;12.28;10.28;;;;;;;17.79;70.80;97556.02;1720951;83;21091;-85
2021/08/24 01:30:09;;;;;;;11.85;9.78;;;;;;;17.81;70.96;97550.07;1719845;83;21044;-84
2021/08/24 01:32:55;;;;;;;13.05;9.18;;;;;;;17.87;70.88;97551.49;1719291;83;21080;-84
2021/08/24 01:35:43;;;;;;;12.07;9.60;;;;;;;17.90;71.29;97553.11;1720797;83;21040;-84
2021/08/24 01:38:21;;;;;;;10.93;9.40;;;;;;;17.93;71.21;97555.56;1725619;82;21064;-84
2021/08/24 01:41:08;;;;;;;12.98;9.65;;;;;;;17.98;71.71;97557.45;1720645;83;21029;-84
2021/08/24 01:43:58;;;;;;;10.72;9.63;;;;;;;18.06;71.20;97556.47;1720739;83;21052;-84
2021/08/24 01:46:52;;;;;;;11.18;10.08;;;;;;;18.11;70.84;97554.86;1736738;82;20980;-84
2021/08/24 01:49:23;;;;;;;11.48;10.35;;;;;;;18.11;70.97;97553.52;1728221;81;21053;-85
2021/08/24 01:51:54;;;;;;;12.00;10.70;;;;;;;18.13;70.67;97554.27;1720929;83;21059;-84
2021/08/24 01:54:38;;;;;;;12.58;10.30;;;;;;;18.07;70.38;97552.01;1730852;82;20981;-85
2021/08/24 01:57:10;;;;;;;14.87;10.45;;;;;;;18.02;70.45;97551.43;1753650;82;20972;-84
2021/08/24 01:59:57;;;;;;;11.38;10.18;;;;;;;17.98;70.60;97558.80;1724795;82;21044;-85
2021/08/24 02:02:31;;;;;;;10.90;9.45;;;;;;;17.96;70.35;97560.73;1720604;83;21414;-84
2021/08/24 02:05:12;;;;;;;13.13;9.68;;;;;;;17.90;70.90;97561.15;1738498;82;20980;-85
2021/08/24 02:07:40;;;;;;;10.23;9.23;;;;;;;17.86;70.59;97564.49;1751847;82;20964;-84
2021/08/24 02:10:20;;;;;;;11.60;9.40;;;;;;;17.80;70.65;97563.56;1720558;83;21032;-85
2021/08/24 02:12:51;;;;;;;11.48;10.28;;;;;;;17.76;70.55;97564.26;1720939;83;21394;-85
2021/08/24 02:15:31;;;;;;;11.50;10.30;;;;;;;17.71;70.75;97560.15;1720673;83;21028;-85
2021/08/24 02:17:59;;;;;;;13.55;10.30;;;;;;;17.65;70.95;97558.75;1729940;82;21048;-84
2021/08/24 02:20:37;;;;;;;11.90;10.70;;;;;;;17.60;72.45;97552.84;1719694;82;21008;-84
2021/08/24 02:23:09;;;;;;;11.38;10.18;;;;;;;17.51;71.45;97559.17;1720171;83;21035;-84
2021/08/24 02:25:40;;;;;;;12.40;10.50;;;;;;;17.48;71.52;97558.02;1731966;82;20949;-84
2021/08/24 02:28:24;;;;;;;13.88;9.63;;;;;;;17.43;71.54;97555.28;1746014;82;21041;-85
2021/08/24 02:30:56;;;;;;;11.63;10.43;;;;;;;17.37;71.77;97552.04;1719431;83;21024;-85
2021/08/24 02:33:27;;;;;;;11.33;10.10;;;;;;;17.36;72.96;97554.81;1718322;83;21013;-85
2021/08/24 02:35:58;;;;;;;14.93;10.63;;;;;;;17.35;72.12;97554.44;1725233;82;21668;-84
2021/08/24 02:38:29;;;;;;;12.03;10.72;;;;;;;17.34;73.13;97548.67;1752863;81;21071;-85
2021/08/24 02:41:09;;;;;;;11.48;10.05;;;;;;;17.31;72.46;97551.08;1746466;81;21044;-85
2021/08/24 02:44:21;;;;;;;12.10;10.35;;;;;;;17.31;73.06;97559.61;1711889;83;21502;-85
2021/08/24 02:46:52;;;;;;;11.35;10.20;;;;;;;17.28;72.99;97552.63;1719826;82;21013;-85
2021/08/24 02:49:24;;;;;;;11.90;10.58;;;;;;;17.28;73.18;97564.68;1720277;83;21087;-85
2021/08/24 02:51:54;;;;;;;12.03;10.63;;;;;;;17.30;73.77;97557.39;1719541;83;21060;-85
2021/08/24 02:54:41;;;;;;;11.80;10.55;;;;;;;17.28;75.55;97558.83;1690198;83;21431;-85
2021/08/24 02:57:08;;;;;;;13.43;10.68;;;;;;;17.25;74.93;97571.09;1719758;82;20992;-85
2021/08/24 02:59:36;;;;;;;12.63;10.78;;;;;;;17.24;74.62;97571.19;1720671;83;21044;-85
2021/08/24 03:02:05;;;;;;;11.80;10.60;;;;;;;17.22;76.26;97567.27;1719816;82;20981;-85
2021/08/24 03:04:32;;;;;;;11.83;10.63;;;;;;;17.23;74.26;97563.63;1729737;82;20968;-86
2021/08/24 03:07:10;;;;;;;11.45;10.25;;;;;;;17.26;74.25;97571.47;1753004;82;20957;-86
2021/08/24 03:09:38;;;;;;;12.50;10.18;;;;;;;17.22;76.05;97576.63;1753525;82;21024;-86
2021/08/24 03:12:26;;;;;;;12.07;9.60;;;;;;;17.23;74.63;97578.34;1732278;81;21040;-85
2021/08/24 03:15:13;;;;;;;10.80;9.70;;;;;;;17.22;76.13;97584.67;1735100;82;21032;-85
2021/08/24 03:18:00;;;;;;;11.25;9.83;;;;;;;17.27;74.75;97586.57;1753809;82;21020;-85
2021/08/24 03:20:31;;;;;;;11.83;9.40;;;;;;;17.32;74.60;97585.42;1727948;82;21020;-85
2021/08/24 03:23:00;;;;;;;10.63;9.53;;;;;;;17.38;74.53;97587.70;1722191;82;20977;-85
2021/08/24 03:25:28;;;;;;;9.55;8.53;;;;;;;17.45;74.60;97586.37;1720126;83;21108;-85
2021/08/24 03:27:54;;;;;;;12.53;8.75;;;;;;;17.53;75.37;97590.73;1719923;82;21031;-85
2021/08/24 03:30:24;;;;;;;9.85;8.83;;;;;;;17.58;75.74;97590.91;1720321;83;21036;-85
2021/08/24 03:32:52;;;;;;;11.97;9.40;;;;;;;17.64;75.97;97589.16;1739799;82;21035;-85
2021/08/24 03:35:21;;;;;;;11.28;8.60;;;;;;;17.71;75.50;97590.50;1734145;82;20985;-85
2021/08/24 03:37:47;;;;;;;12.18;9.80;;;;;;;17.74;74.85;97592.12;1720838;83;21004;-85
2021/08/24 03:40:16;;;;;;;12.65;10.28;;;;;;;17.79;75.27;97589.53;1712948;83;21043;-85
2021/08/24 03:42:43;;;;;;;10.48;9.23;;;;;;;17.81;74.97;97589.41;1696921;84;21020;-85
2021/08/24 03:45:10;;;;;;;12.33;10.32;;;;;;;17.80;75.04;97590.38;1698955;84;21035;-85
2021/08/24 03:47:37;;;;;;;13.93;10.28;;;;;;;17.77;74.81;97582.55;1689899;84;21408;-85
2021/08/24 03:50:05;;;;;;;14.00;9.88;;;;;;;17.78;75.20;97591.80;1709436;83;21070;-85
2021/08/24 03:52:32;;;;;;;11.65;10.38;;;;;;;17.74;74.88;97590.31;1719102;81;20996;-85
2021/08/24 03:54:59;;;;;;;12.33;10.05;;;;;;;17.74;75.36;97591.66;1704113;83;21071;-85
2021/08/24 03:57:25;;;;;;;11.78;10.68;;;;;;;17.71;75.05;97603.91;1710108;83;21399;-85
2021/08/24 03:59:56;;;;;;;11.48;10.32;;;;;;;17.68;74.84;97600.94;1710336;84;21045;-85
2021/08/24 04:02:25;;;;;;;11.25;10.15;;;;;;;17.71;74.74;97610.60;1733707;81;20987;-85
2021/08/24 04:04:51;;;;;;;11.90;9.98;;;;;;;17.73;75.03;97610.51;1704411;83;21039;-85
2021/08/24 04:07:18;;;;;;;13.75;10.32;;;;;;;17.74;74.84;97610.88;1697236;84;21058;-84
2021/08/24 04:09:44;;;;;;;10.88;9.75;;;;;;;17.78;74.67;97613.25;1695376;84;21101;-85
2021/08/24 04:12:13;;;;;;;16.05;11.33;;;;;;;17.81;74.23;97615.73;1706115;84;20981;-85
2021/08/24 04:14:41;;;;;;;14.35;11.12;;;;;;;17.83;74.29;97621.47;1709250;84;21470;-85
2021/08/24 04:17:08;;;;;;;14.30;12.13;;;;;;;17.82;74.33;97627.33;1709237;84;21064;-85
2021/08/24 04:19:35;;;;;;;15.48;10.85;;;;;;;17.77;75.10;97629.45;1709225;84;21075;-85
2021/08/24 04:22:09;;;;;;;13.65;11.43;;;;;;;17.72;74.85;97629.73;1697117;84;21428;-85
2021/08/24 04:24:36;;;;;;;13.00;11.30;;;;;;;17.66;75.37;97632.32;1707266;84;20996;-84
2021/08/24 04:27:04;;;;;;;13.03;11.25;;;;;;;17.68;74.60;97634.44;1709412;84;21433;-84
2021/08/24 04:29:32;;;;;;;14.07;11.45;;;;;;;17.70;74.36;97634.34;1707508;84;21035;-84
2021/08/24 04:31:59;;;;;;;15.23;11.50;;;;;;;17.70;74.14;97633.01;1676899;84;21030;-84
2021/08/24 04:34:26;;;;;;;12.70;11.20;;;;;;;17.73;74.19;97634.62;1676631;86;21050;-84
2021/08/24 04:36:53;;;;;;;15.68;12.28;;;;;;;17.70;75.06;97637.03;1709644;82;21015;-84
2021/08/24 04:39:19;;;;;;;13.62;11.93;;;;;;;17.68;75.79;97642.95;1709371;82;21047;-84
2021/08/24 04:41:45;;;;;;;14.18;11.57;;;;;;;17.66;75.28;97648.40;1706257;83;20995;-84
2021/08/24 04:44:12;;;;;;;13.50;11.43;;;;;;;17.62;75.85;97636.66;1706483;82;20988;-84
2021/08/24 04:46:38;;;;;;;14.10;11.60;;;;;;;17.58;76.26;97636.00;1708616;82;20996;-84
2021/08/24 04:49:04;;;;;;;13.60;11.15;;;;;;;17.60;76.20;97638.58;1705967;83;21046;-83
2021/08/24 04:51:32;;;;;;;14.50;11.55;;;;;;;17.62;75.49;97644.22;1704864;84;21030;-82
2021/08/24 04:53:58;;;;;;;15.90;11.30;;;;;;;17.67;75.96;97642.57;1707363;82;21070;-82
2021/08/24 04:56:24;;;;;;;16.15;10.68;;;;;;;17.70;76.56;97649.55;1718803;83;20972;-82
2021/08/24 04:58:50;;;;;;;12.60;10.40;;;;;;;17.74;76.58;97646.59;1719071;82;21050;-82
2021/08/24 05:01:17;;;;;;;13.83;10.93;;;;;;;17.80;77.07;97646.66;1706622;82;20984;-82
2021/08/24 05:03:43;;;;;;;11.97;9.78;;;;;;;17.87;76.62;97653.36;1705850;83;21401;-83
2021/08/24 05:06:10;;;;;;;13.38;9.58;;;;;;;17.95;76.74;97658.22;1704816;84;21062;-82
2021/08/24 05:08:36;;;;;;;16.07;9.80;;;;;;;18.03;76.78;97655.03;1706004;81;21004;-83
2021/08/24 05:11:02;;;;;;;15.90;11.68;;;;;;;18.10;76.13;97655.52;1703516;84;21359;-82
2021/08/24 05:13:29;;;;;;;12.50;9.45;;;;;;;18.13;76.76;97664.69;1714680;83;21035;-82
2021/08/24 05:15:55;;;;;;;14.10;9.95;;;;;;;18.16;77.41;97677.44;1723932;83;21013;-82
2021/08/24 05:18:22;;;;;;;12.85;10.08;;;;;;;18.15;77.05;97674.34;1723986;82;20984;-82
2021/08/24 05:20:48;;;;;;;15.25;10.72;;;;;;;18.16;77.26;97677.90;1726468;82;21394;-82
2021/08/24 05:23:15;;;;;;;12.20;9.58;;;;;;;18.17;77.13;97670.23;1705019;83;21042;-82
2021/08/24 05:25:41;;;;;;;10.78;8.55;;;;;;;18.10;80.48;97676.97;1705183;84;21065;-83
2021/08/24 05:28:07;;;;;;;10.40;8.30;;;;;;;18.06;80.62;97686.52;1704734;83;21026;-82
2021/08/24 05:30:34;;;;;;;11.15;9.73;;;;;;;17.98;81.35;97682.63;1706170;83;21041;-82
2021/08/24 05:33:00;;;;;;;12.43;9.63;;;;;;;17.99;79.86;97678.50;1705795;82;20999;-82
2021/08/24 05:35:27;;;;;;;10.30;8.78;;;;;;;18.01;79.25;97685.95;1706427;84;21054;-82
2021/08/24 05:37:53;;;;;;;13.62;9.70;;;;;;;17.99;80.07;97685.67;1706487;84;21002;-83
2021/08/24 05:40:20;;;;;;;14.68;10.88;;;;;;;17.95;82.31;97688.55;1707320;82;21034;-83
2021/08/24 05:42:46;;;;;;;13.40;10.10;;;;;;;17.89;81.74;97689.45;1669312;85;21016;-83
2021/08/24 05:45:13;;;;;;;12.13;10.43;;;;;;;17.86;81.09;97687.80;1708183;83;21125;-84
2021/08/24 05:47:40;;;;;;;13.08;11.65;;;;;;;17.81;82.83;97700.17;1717629;83;21025;-84
2021/08/24 05:50:08;;;;;;;16.15;11.33;;;;;;;17.76;81.63;97692.03;1706293;83;20990;-84
2021/08/24 05:52:35;;;;;;;16.62;12.73;;;;;;;17.74;81.92;97699.33;1703674;82;21454;-85
2021/08/24 05:55:03;;;;;;;14.80;12.47;;;;;;;17.70;82.49;97704.02;1725518;83;21045;-85
2021/08/24 05:57:30;;;;;;;15.25;12.23;;;;;;;17.62;86.33;97707.20;1718901;83;21044;-84
2021/08/24 05:59:56;;;;;;;14.00;12.53;;;;;;;17.61;82.78;97706.78;1713638;83;21028;-84
2021/08/24 06:02:23;;;;;;;14.15;11.70;;;;;;;17.66;83.04;97703.34;1713848;83;20977;-84
2021/08/24 06:04:49;;;;;;;13.28;11.88;;;;;;;17.73;82.89;97706.48;1714746;82;21064;-85
2021/08/24 06:07:16;;;;;;;11.28;9.63;;;;;;;17.78;82.89;97703.03;1707796;82;21418;-83
2021/08/24 06:09:42;;;;;;;14.38;10.15;;;;;;;17.85;83.15;97699.98;1699880;83;20977;-84
2021/08/24 06:12:09;;;;;;;14.38;10.25;;;;;;;17.89;84.87;97706.37;1711730;83;21021;-83
2021/08/24 06:14:36;;;;;;;11.83;9.53;;;;;;;17.94;84.67;97704.76;1709474;84;21096;-86
2021/08/24 06:17:03;;;;;;;10.60;8.65;;;;;;;17.97;84.08;97699.17;1708621;83;21018;-82
2021/08/24 06:19:30;;;;;;;10.85;7.80;;;;;;;18.01;83.85;97703.38;1720873;83;20953;-82
2021/08/24 06:22:01;;;;;;;9.60;8.48;;;;;;;18.08;83.81;97698.52;1712951;83;21017;-82
2021/08/24 06:24:29;;;;;;;10.65;8.30;;;;;;;18.16;83.43;97704.72;1696138;83;20969;-82
2021/08/24 06:26:55;;;;;;;12.28;9.48;;;;;;;18.23;85.42;97709.20;1700829;84;21089;-81
2021/08/24 06:29:22;;;;;;;11.08;8.48;;;;;;;18.28;83.64;97709.77;1699859;84;22126;-81
2021/08/24 06:31:52;;;;;;;11.45;9.03;;;;;;;18.29;83.87;97716.38;1698579;84;20997;-81
2021/08/24 06:34:21;;;;;;;10.32;7.33;;;;;;;18.32;83.51;97704.08;1702925;83;21442;-81
2021/08/24 06:36:49;;;;;;;13.68;8.15;;;;;;;18.35;83.42;97703.02;1701614;84;21456;-80
2021/08/24 06:39:16;;;;;;;11.35;9.13;;;;;;;18.33;83.19;97704.48;1693855;84;21432;-79
2021/08/24 06:41:42;;;;;;;12.93;9.13;;;;;;;18.36;83.08;97705.23;1693357;83;20999;-84
2021/08/24 06:44:11;;;;;;;14.03;11.55;;;;;;;18.35;82.97;97704.36;1669518;86;21004;-85
2021/08/24 06:46:38;;;;;;;12.47;9.20;;;;;;;18.40;82.23;97702.23;1727728;82;20996;-85
2021/08/24 06:49:06;;;;;;;11.75;9.45;;;;;;;18.39;84.08;97707.22;1700813;81;20988;-86
2021/08/24 06:51:36;;;;;;;14.83;10.08;;;;;;;18.42;82.61;97708.84;1724819;82;21051;-85
2021/08/24 06:54:06;;;;;;;12.35;9.10;;;;;;;18.45;82.01;97700.13;1697936;81;21055;-84
2021/08/24 06:56:35;;;;;;;14.30;10.65;;;;;;;18.51;82.69;97706.88;1701972;83;21341;-84
2021/08/24 06:59:03;;;;;;;13.40;10.10;;;;;;;18.53;82.78;97710.34;1709939;83;20987;-80
2021/08/24 07:01:35;;;;;;;17.42;11.55;;;;;;;18.55;81.99;97707.06;1734934;83;21030;-80
2021/08/24 07:04:00;;;;;;;17.42;11.30;;;;;;;18.57;83.14;97704.28;1756004;82;21075;-80
2021/08/24 07:06:26;;;;;;;11.63;9.98;;;;;;;18.57;82.15;97704.28;1728022;83;21403;-80
2021/08/24 07:08:56;;;;;;;11.30;9.73;;;;;;;18.60;81.48;97699.56;1711528;83;20996;-78
2021/08/24 07:11:26;;;;;;;12.10;9.65;;;;;;;18.63;82.78;97694.47;1699027;83;21509;-80
2021/08/24 07:13:51;;;;;;;14.25;10.05;;;;;;;18.71;81.24;97700.66;1699967;81;21096;-79
2021/08/24 07:16:17;;;;;;;12.58;9.95;;;;;;;18.74;81.28;97697.77;1643488;87;21008;-80
2021/08/24 07:18:46;;;;;;;11.97;10.40;;;;;;;18.77;81.07;97698.89;1718762;83;21056;-77
2021/08/24 07:21:17;;;;;;;18.23;10.40;;;;;;;18.79;80.95;97694.77;1672743;84;20952;-78
2021/08/24 07:23:46;;;;;;;14.70;10.32;;;;;;;18.81;81.13;97689.66;1726243;82;20989;-78
2021/08/24 07:26:15;;;;;;;14.45;10.60;;;;;;;18.83;80.76;97681.52;1698665;84;20988;-78
2021/08/24 07:28:41;;;;;;;14.85;10.50;;;;;;;18.88;80.39;97691.45;1723674;83;21043;-80
2021/08/24 07:31:08;;;;;;;12.95;10.82;;;;;;;18.93;80.17;97684.44;1699388;83;21016;-80
2021/08/24 07:33:34;;;;;;;11.90;9.70;;;;;;;18.97;80.02;97681.89;1719226;83;21019;-80
2021/08/24 07:36:01;;;;;;;7.55;6.80;;;;;;;18.99;80.20;97686.19;1703528;83;22104;-86
2021/08/24 07:38:27;;;;;;;7.70;6.92;;;;;;;19.03;79.57;97695.39;1723738;82;21032;-86
2021/08/24 07:40:55;;;;;;;8.25;7.20;;;;;;;19.00;79.26;97700.02;1715549;81;21044;-85
2021/08/24 07:43:24;;;;;;;8.80;7.62;;;;;;;18.99;79.32;97694.75;1700762;83;20972;-83
2021/08/24 07:45:51;;;;;;;8.00;7.20;;;;;;;19.03;79.52;97697.60;1726715;82;21080;-84
2021/08/24 07:48:18;;;;;;;8.43;7.03;;;;;;;19.06;79.60;97697.91;1700681;82;21031;-85
2021/08/24 07:50:44;;;;;;;8.60;6.85;;;;;;;19.13;79.81;97704.55;1725259;83;21130;-85
2021/08/24 07:53:11;;;;;;;8.90;7.70;;;;;;;19.25;79.71;97705.06;1698727;84;21062;-86
2021/08/24 07:55:38;;;;;;;9.35;8.08;;;;;;;19.36;80.23;97694.88;1725525;83;21008;-86
2021/08/24 07:58:05;;;;;;;8.68;7.42;;;;;;;19.47;80.07;97688.75;1701791;83;21051;-85
2021/08/24 08:00:31;;;;;;;8.28;7.42;;;;;;;19.56;79.85;97695.28;1723814;82;20937;-86
2021/08/24 08:02:58;;;;;;;8.25;6.80;;;;;;;19.64;79.49;97699.64;1698389;84;21063;-85
2021/08/24 08:05:24;;;;;;;8.00;6.67;;;;;;;19.68;79.06;97693.55;1721710;82;21628;-85
2021/08/24 08:07:51;;;;;;;7.97;7.03;;;;;;;19.74;78.47;97693.60;1698604;83;21516;-85
2021/08/24 08:10:17;;;;;;;10.70;7.60;;;;;;;19.81;77.85;97690.86;1723897;83;20960;-85
2021/08/24 08:12:44;;;;;;;10.15;8.05;;;;;;;19.82;78.31;97694.39;1705124;83;21575;-86
2021/08/24 08:15:12;;;;;;;9.35;7.70;;;;;;;19.82;77.91;97691.23;1725124;83;21023;-82
2021/08/24 08:17:39;;;;;;;9.70;8.28;;;;;;;19.85;77.69;97700.39;1699051;83;21070;-81
2021/08/24 08:20:07;;;;;;;10.72;8.70;;;;;;;19.80;77.78;97695.84;1726009;82;20956;-81
2021/08/24 08:22:36;;;;;;;9.88;8.18;;;;;;;19.85;77.83;97690.98;1703019;83;20987;-81
2021/08/24 08:25:07;;;;;;;14.40;8.35;;;;;;;19.85;77.54;97689.64;1730526;82;21009;-81
2021/08/24 08:27:33;;;;;;;10.90;8.18;;;;;;;19.83;77.34;97692.06;1699169;83;21023;-81
2021/08/24 08:29:59;;;;;;;11.38;8.30;;;;;;;19.82;77.21;97691.70;1724643;83;21040;-81
2021/08/24 08:32:30;;;;;;;10.90;8.88;;;;;;;19.79;77.08;97692.78;1679115;84;21426;-86
2021/08/24 08:34:57;;;;;;;10.35;8.20;;;;;;;19.77;76.66;97697.42;1726084;82;21374;-84
2021/08/24 08:37:24;;;;;;;10.08;9.03;;;;;;;19.72;77.29;97700.94;1714894;83;21088;-84
2021/08/24 08:39:51;;;;;;;11.15;8.78;;;;;;;19.61;77.09;97697.66;1733580;82;21004;-85
2021/08/24 08:42:45;;;;;;;10.08;8.88;;;;;;;19.52;77.02;97698.69;1752732;80;21012;-85
2021/08/24 08:45:27;;;;;;;13.30;9.25;;;;;;;19.51;76.91;97709.53;1670362;84;21951;-85
2021/08/24 08:48:35;;;;;;;11.50;9.13;;;;;;;19.49;77.09;97715.52;1707259;82;21028;-85
2021/08/24 08:51:16;;;;;;;12.33;9.60;;;;;;;19.47;76.87;97706.72;1704251;84;21488;-85
2021/08/24 08:54:06;;;;;;;10.90;9.73;;;;;;;19.46;77.83;97698.25;1707400;82;20993;-85
2021/08/24 08:56:43;;;;;;;17.23;10.00;;;;;;;19.47;77.44;97695.47;1704330;81;21075;-87
2021/08/24 08:59:18;;;;;;;13.50;10.05;;;;;;;19.45;78.09;97690.70;1665397;84;21083;-84
2021/08/24 09:02:23;;;;;;;14.33;10.38;;;;;;;19.41;78.73;97689.66;1703169;83;20999;-84
2021/08/24 09:04:51;;;;;;;11.85;10.55;;;;;;;19.38;78.81;97698.33;1699696;83;21446;-82
2021/08/24 09:07:31;;;;;;;13.68;10.03;;;;;;;19.36;78.08;97693.53;1732536;82;21425;-84
2021/08/24 09:10:00;;;;;;;12.58;10.55;;;;;;;19.34;78.07;97684.73;1754670;81;20980;-85
2021/08/24 09:12:29;;;;;;;12.88;11.48;;;;;;;19.30;78.05;97683.23;1755953;81;21031;-83
2021/08/24 09:15:00;;;;;;;14.30;10.63;;;;;;;19.27;78.51;97686.15;1704786;84;21048;-85
2021/08/24 09:17:39;;;;;;;14.55;11.18;;;;;;;19.25;79.53;97680.00;1703549;84;20983;-84
2021/08/24 09:20:32;;;;;;;11.12;10.03;;;;;;;19.24;78.63;97676.95;1747285;82;21406;-83
2021/08/24 09:23:04;;;;;;;10.95;8.98;;;;;;;19.22;78.37;97678.90;1724540;82;21003;-84
2021/08/24 09:25:54;;;;;;;11.30;10.00;;;;;;;19.20;78.41;97683.03;1706428;83;21023;-83
2021/08/24 09:28:25;;;;;;;13.22;10.32;;;;;;;19.22;78.43;97678.39;1640742;87;21165;-84
2021/08/24 09:30:53;;;;;;;11.63;9.70;;;;;;;19.25;78.49;97683.56;1711139;82;21011;-83
2021/08/24 09:33:22;;;;;;;13.10;10.38;;;;;;;19.29;78.78;97684.67;1740365;82;21055;-83
2021/08/24 09:35:49;;;;;;;13.25;10.28;;;;;;;19.31;78.86;97682.75;1714338;82;20991;-83
2021/08/24 09:38:24;;;;;;;15.80;10.53;;;;;;;19.34;79.23;97690.58;1735447;82;20979;-83
2021/08/24 09:40:58;;;;;;;15.10;9.30;;;;;;;19.36;79.42;97690.84;1726326;82;21063;-82
2021/08/24 09:43:35;;;;;;;13.60;9.93;;;;;;;19.38;79.45;97695.64;1710035;82;21048;-84
2021/08/24 09:46:19;;;;;;;14.18;9.38;;;;;;;19.41;79.82;97687.85;1708029;84;21021;-84
2021/08/24 09:49:25;;;;;;;12.93;9.73;;;;;;;19.48;81.16;97690.45;1709903;83;21406;-84
2021/08/24 09:51:55;;;;;;;13.20;11.03;;;;;;;19.52;80.12;97697.34;1673986;84;21050;-83
2021/08/24 09:54:41;;;;;;;13.20;9.88;;;;;;;19.56;80.67;97694.45;1707963;84;21036;-83
2021/08/24 09:57:19;;;;;;;34.83;28.38;;;;;;;19.64;80.28;97700.14;1708247;84;21009;-83
2021/08/24 10:00:06;;;;;;;13.58;11.28;;;;;;;19.68;80.16;97689.52;1708129;83;21025;-83
2021/08/24 10:02:42;;;;;;;16.40;11.30;;;;;;;19.72;80.15;97689.67;1708047;83;21049;-84
2021/08/24 10:05:15;;;;;;;13.22;10.93;;;;;;;19.76;80.21;97692.99;1718664;83;21012;-83
2021/08/24 10:07:46;;;;;;;14.68;10.90;;;;;;;19.84;79.83;97690.62;1704121;84;21494;-82
2021/08/24 10:10:29;;;;;;;14.65;12.63;;;;;;;19.89;80.04;97688.45;1708096;84;20989;-83
2021/08/24 10:12:59;;;;;;;15.37;12.63;;;;;;;19.94;79.59;97694.86;1709200;83;21052;-83
2021/08/24 10:15:38;;;;;;;14.80;12.93;;;;;;;19.96;79.34;97695.59;1709620;84;21005;-83
2021/08/24 10:18:13;;;;;;;14.58;12.95;;;;;;;19.98;79.25;97703.58;1685137;84;21072;-83
2021/08/24 10:20:56;;;;;;;17.30;13.13;;;;;;;20.01;78.80;97701.52;1708107;83;21136;-83
2021/08/24 10:23:37;;;;;;;15.32;13.38;;;;;;;19.97;79.05;97697.33;1708230;84;21395;-83
2021/08/24 10:26:08;;;;;;;16.30;13.62;;;;;;;19.90;79.01;97694.70;1685115;84;21005;-84
2021/08/24 10:28:58;;;;;;;20.60;14.60;;;;;;;19.88;79.52;97698.84;1717870;83;21086;-84
2021/08/24 10:31:51;;;;;;;16.27;14.28;;;;;;;19.86;79.54;97703.48;1727099;83;21107;-83
2021/08/24 10:34:43;;;;;;;16.57;13.88;;;;;;;19.85;79.90;97703.59;1726999;83;21453;-83
2021/08/24 10:37:27;;;;;;;20.85;14.15;;;;;;;19.85;79.41;97699.55;1719660;83;21083;-83
2021/08/24 10:40:09;;;;;;;;;;;;;;;19.84;79.08;97710.78;1712344;83;21040;-83
2021/08/24 10:42:40;;;;;;;18.77;14.63;;;;;;;19.88;79.20;97709.59;1714333;83;20156;-83
2021/08/24 10:45:27;;;;;;;18.70;15.30;;;;;;;19.90;79.39;97707.64;1720836;83;21012;-84
2021/08/24 10:47:59;;;;;;;27.98;17.10;;;;;;;19.98;79.26;97702.23;1720597;82;21020;-82
2021/08/24 10:50:49;;;;;;;21.35;15.23;;;;;;;20.10;78.77;97697.28;1720738;83;21024;-83
2021/08/24 10:53:46;;;;;;;17.42;13.98;;;;;;;20.20;79.07;97706.02;1721430;82;21020;-83
2021/08/24 10:56:30;;;;;;;15.60;12.23;;;;;;;20.30;78.40;97702.55;1719688;82;21024;-82
2021/08/24 10:59:41;;;;;;;16.70;11.85;;;;;;;20.49;77.37;97707.03;1718326;83;21000;-80
2021/08/24 11:02:29;;;;;;;15.95;11.93;;;;;;;20.67;76.90;97697.57;1720872;82;21004;-81
2021/08/24 11:05:48;;;;;;;15.05;11.65;;;;;;;20.86;75.94;97703.38;1719680;83;21006;-81
2021/08/24 11:08:52;;;;;;;41.53;32.17;;;;;;;20.97;76.19;97693.53;1756505;82;21035;-81
2021/08/24 11:11:32;;;;;;;16.23;13.45;;;;;;;21.17;75.93;97688.42;1726386;82;21072;-81
2021/08/24 11:14:34;;;;;;;13.83;12.05;;;;;;;21.29;74.33;97681.72;1725573;82;21012;-81
2021/08/24 11:17:50;;;;;;;10.40;9.30;;;;;;;21.39;75.06;97680.02;1717577;81;21032;-81
2021/08/24 11:20:22;;;;;;;10.68;8.65;;;;;;;21.48;74.15;97682.45;1717043;82;21011;-81
2021/08/24 11:23:36;;;;;;;13.72;9.70;;;;;;;21.65;73.69;97682.45;1712141;83;20972;-80
2021/08/24 11:26:14;;;;;;;16.87;13.48;;;;;;;21.84;72.69;97685.05;1709643;83;20996;-82
2021/08/24 11:28:55;;;;;;;11.38;9.78;;;;;;;21.98;72.31;97687.96;1703551;83;20979;-81
2021/08/24 11:31:34;;;;;;;11.88;9.40;;;;;;;22.02;71.63;97687.57;1728520;82;21007;-81
2021/08/24 11:34:21;;;;;;;10.55;9.13;;;;;;;22.11;71.70;97683.76;1684708;85;21427;-80
2021/08/24 11:36:55;;;;;;;10.90;9.53;;;;;;;22.22;71.08;97672.92;1708615;83;21042;-80
2021/08/24 11:39:35;;;;;;;11.25;8.83;;;;;;;22.42;71.20;97682.08;1727965;82;21016;-81
2021/08/24 11:42:04;;;;;;;10.43;8.98;;;;;;;22.63;70.66;97679.09;1689237;83;21032;-81
2021/08/24 11:44:47;;;;;;;10.78;9.18;;;;;;;22.74;69.98;97678.16;1729660;82;21086;-82
2021/08/24 11:47:17;;;;;;;10.68;8.48;;;;;;;22.88;69.80;97672.43;1680395;84;21452;-81
2021/08/24 11:50:13;;;;;;;9.90;8.73;;;;;;;22.92;67.15;97671.70;1672824;84;20996;-79
2021/08/24 11:52:57;;;;;;;9.80;7.90;;;;;;;22.89;67.30;97669.25;1699182;83;21032;-78